createdAt,value
2022-10-22T00:01:57.864Z,0.20
2022-10-22T00:06:59.471Z,0.20
2022-10-22T00:12:01.092Z,0.40
2022-10-22T00:17:02.648Z,0.30
2022-10-22T00:22:06.814Z,0.45
2022-10-22T00:27:10.079Z,0.40
2022-10-22T00:32:11.681Z,0.15
2022-10-22T00:37:13.157Z,0.40
2022-10-22T00:42:23.696Z,0.28
2022-10-22T00:52:28.123Z,0.45
2022-10-22T00:57:29.636Z,0.10
2022-10-22T01:02:31.165Z,0.30
2022-10-22T01:07:40.707Z,0.13
2022-10-22T01:13:13.495Z,0.30
2022-10-22T01:18:25.734Z,0.20
2022-10-22T01:24:07.922Z,0.30
2022-10-22T01:29:15.765Z,0.38
2022-10-22T01:34:19.054Z,0.20
2022-10-22T01:39:23.259Z,0.35
2022-10-22T01:44:32.902Z,0.20
2022-10-22T01:50:11.366Z,0.20
2022-10-22T01:55:22.054Z,0.35
2022-10-22T02:00:23.910Z,0.90
2022-10-22T02:05:32.899Z,0.20
2022-10-22T02:10:38.127Z,0.40
2022-10-22T02:15:40.882Z,0.30
2022-10-22T02:20:42.669Z,0.50
2022-10-22T02:25:49.435Z,0.40
2022-10-22T02:31:01.797Z,0.45
2022-10-22T02:36:04.417Z,0.50
2022-10-22T02:41:06.270Z,0.30
2022-10-22T02:46:07.813Z,0.88
2022-10-22T02:51:09.423Z,0.40
2022-10-22T02:56:10.857Z,0.43
2022-10-22T03:01:15.286Z,0.40
2022-10-22T03:06:18.236Z,0.40
2022-10-22T03:11:19.781Z,0.50
2022-10-22T03:16:21.257Z,0.30
2022-10-22T03:21:37.517Z,0.30
2022-10-22T03:26:41.936Z,0.55
2022-10-22T03:31:43.429Z,0.30
2022-10-22T03:36:45.153Z,0.43
2022-10-22T03:41:48.464Z,0.40
2022-10-22T03:46:50.157Z,0.35
2022-10-22T03:51:51.640Z,0.50
2022-10-22T03:56:53.092Z,0.57
2022-10-22T04:01:54.537Z,0.73
2022-10-22T04:06:56.299Z,0.40
2022-10-22T04:11:57.707Z,0.40
2022-10-22T04:16:59.235Z,0.60
2022-10-22T04:22:00.652Z,0.52
2022-10-22T04:27:02.087Z,0.47
2022-10-22T04:32:03.564Z,0.70
2022-10-22T04:37:05.101Z,0.60
2022-10-22T04:42:06.555Z,0.40
2022-10-22T04:47:08.004Z,0.50
2022-10-22T04:52:09.508Z,1.10
2022-10-22T04:57:10.920Z,0.63
2022-10-22T05:02:12.341Z,0.98
2022-10-22T05:07:14.376Z,0.90
2022-10-22T05:12:15.832Z,1.45
2022-10-22T05:17:17.272Z,0.50
2022-10-22T05:22:18.798Z,0.90
2022-10-22T05:27:20.207Z,0.80
2022-10-22T05:32:21.687Z,0.60
2022-10-22T05:37:23.199Z,0.52
2022-10-22T05:42:24.655Z,0.65
2022-10-22T05:47:26.793Z,0.90
2022-10-22T05:52:28.250Z,0.88
2022-10-22T05:57:29.668Z,0.80
2022-10-22T06:02:31.198Z,0.70
2022-10-22T06:07:33.464Z,0.80
2022-10-22T06:12:34.919Z,2.08
2022-10-22T06:17:36.425Z,0.80
2022-10-22T06:22:38.025Z,0.85
2022-10-22T06:27:39.642Z,0.63
2022-10-22T06:32:41.537Z,0.63
2022-10-22T06:37:43.383Z,0.70
2022-10-22T06:42:44.977Z,0.30
2022-10-22T06:47:47.348Z,0.30
2022-10-22T06:52:48.768Z,0.30
2022-10-22T06:57:50.297Z,0.80
2022-10-22T07:02:57.661Z,0.60
2022-10-22T07:08:00.775Z,1.50
2022-10-22T07:13:02.241Z,0.88
2022-10-22T07:18:04.717Z,0.40
2022-10-22T07:23:06.152Z,0.38
2022-10-22T07:28:07.911Z,0.57
2022-10-22T07:33:09.536Z,0.63
2022-10-22T07:38:11.003Z,0.73
2022-10-22T07:43:12.636Z,0.50
2022-10-22T07:48:14.533Z,0.43
2022-10-22T07:53:16.491Z,0.60
2022-10-22T07:58:19.252Z,0.30
2022-10-22T08:03:21.184Z,0.40
2022-10-22T08:08:25.862Z,0.30
2022-10-22T08:13:30.775Z,0.43
2022-10-22T08:18:32.350Z,0.60
2022-10-22T08:23:34.474Z,0.30
2022-10-22T08:28:37.236Z,0.40
2022-10-22T08:33:39.432Z,0.30
2022-10-22T08:38:40.896Z,0.60
2022-10-22T08:43:56.723Z,0.52
2022-10-22T08:49:01.722Z,0.60
2022-10-22T08:54:35.221Z,0.90
2022-10-22T09:00:09.164Z,0.82
2022-10-22T09:05:28.019Z,0.65
2022-10-22T09:10:36.238Z,0.47
2022-10-22T09:15:38.411Z,0.68
2022-10-22T09:20:54.471Z,0.47
2022-10-22T09:25:57.277Z,0.50
2022-10-22T09:36:07.775Z,0.30
2022-10-22T09:41:09.438Z,0.70
2022-10-22T09:46:19.637Z,0.40
2022-10-22T09:51:24.236Z,0.30
2022-10-22T09:56:28.445Z,0.35
2022-10-22T10:01:40.951Z,0.40
2022-10-22T10:06:44.630Z,0.55
2022-10-22T10:12:12.484Z,0.30
2022-10-22T10:17:16.999Z,0.30
2022-10-22T10:22:33.976Z,0.43
2022-10-22T10:27:40.250Z,0.75
2022-10-22T10:33:00.538Z,0.40
2022-10-22T10:38:20.280Z,0.60
2022-10-22T10:43:41.841Z,0.40
2022-10-22T10:48:51.156Z,0.30
2022-10-22T10:54:04.959Z,0.27
2022-10-22T10:59:28.467Z,0.40
2022-10-22T11:05:06.547Z,0.45
2022-10-22T11:10:40.374Z,0.40
2022-10-22T11:15:48.631Z,0.70
2022-10-22T11:21:11.621Z,0.38
2022-10-22T11:26:22.228Z,0.90
2022-10-22T11:31:25.795Z,0.60
2022-10-22T11:36:28.519Z,0.80
2022-10-22T11:41:31.905Z,0.70
2022-10-22T11:46:52.133Z,0.52
2022-10-22T11:52:21.611Z,0.47
2022-10-22T11:57:38.175Z,0.40
2022-10-22T12:02:46.150Z,0.40
2022-10-22T12:07:57.223Z,0.50
2022-10-22T12:13:10.844Z,0.70
2022-10-22T12:23:21.181Z,0.52
2022-10-22T12:28:23.068Z,0.60
2022-10-22T12:33:26.401Z,0.70
2022-10-22T12:38:27.875Z,0.50
2022-10-22T12:43:30.450Z,0.40
2022-10-22T12:48:36.146Z,0.60
2022-10-22T12:53:43.421Z,0.50
2022-10-22T12:59:11.391Z,0.70
2022-10-22T13:04:12.862Z,0.65
2022-10-22T13:09:26.808Z,0.50
2022-10-22T13:14:34.119Z,1.00
2022-10-22T13:19:38.331Z,0.77
2022-10-22T13:24:49.730Z,0.50
2022-10-22T13:29:51.525Z,0.45
2022-10-22T13:34:53.428Z,0.60
2022-10-22T13:39:54.896Z,0.47
2022-10-22T13:44:56.413Z,0.68
2022-10-22T13:50:01.545Z,0.80
2022-10-22T13:55:13.514Z,0.80
2022-10-22T14:00:22.308Z,0.60
2022-10-22T14:05:23.841Z,0.60
2022-10-22T14:10:25.425Z,0.70
2022-10-22T14:15:28.635Z,0.63
2022-10-22T14:20:33.551Z,0.60
2022-10-22T14:25:35.045Z,0.40
2022-10-22T14:30:36.688Z,0.57
2022-10-22T14:35:38.212Z,0.30
2022-10-22T14:40:41.938Z,0.65
2022-10-22T14:45:43.403Z,0.70
2022-10-22T14:50:45.067Z,0.93
2022-10-22T14:55:49.106Z,0.75
2022-10-22T15:00:50.791Z,0.55
2022-10-22T15:05:53.819Z,0.50
2022-10-22T15:11:07.002Z,0.45
2022-10-22T15:16:10.531Z,0.52
2022-10-22T15:21:16.658Z,1.40
2022-10-22T15:26:18.181Z,0.68
2022-10-22T15:31:44.363Z,0.60
2022-10-22T15:36:45.931Z,0.57
2022-10-22T15:41:48.737Z,0.40
2022-10-22T15:51:57.356Z,0.80
2022-10-22T15:57:00.147Z,0.90
2022-10-22T16:02:01.686Z,1.80
2022-10-22T16:07:03.177Z,2.38
2022-10-22T16:12:04.848Z,2.63
2022-10-22T16:17:06.289Z,1.40
2022-10-22T16:22:10.144Z,1.08
2022-10-22T16:27:11.677Z,1.10
2022-10-22T16:32:13.311Z,2.03
2022-10-22T16:37:14.751Z,2.97
2022-10-22T16:42:16.262Z,2.13
2022-10-22T16:47:17.745Z,1.30
2022-10-22T16:52:19.248Z,7.50
2022-10-22T16:57:20.684Z,3.42
2022-10-22T17:02:22.111Z,1.50
2022-10-22T17:07:23.540Z,2.05
2022-10-22T17:12:25.100Z,1.70
2022-10-22T17:17:26.506Z,2.10
2022-10-22T17:22:27.931Z,2.15
2022-10-22T17:27:29.379Z,1.60
2022-10-22T17:32:30.967Z,2.00
2022-10-22T17:37:32.607Z,1.40
2022-10-22T17:42:34.164Z,1.73
2022-10-22T17:47:36.305Z,1.60
2022-10-22T17:52:37.757Z,1.73
2022-10-22T17:57:39.659Z,1.83
2022-10-22T18:02:42.413Z,1.35
2022-10-22T18:07:44.091Z,1.65
2022-10-22T18:12:45.688Z,1.42
2022-10-22T18:17:50.146Z,1.20
2022-10-22T18:22:54.267Z,1.20
2022-10-22T18:27:55.743Z,2.08
2022-10-22T18:32:57.189Z,1.70
2022-10-22T18:37:58.613Z,1.35
2022-10-22T18:43:00.004Z,0.95
2022-10-22T18:48:01.606Z,0.75
2022-10-22T18:53:03.099Z,1.02
2022-10-22T18:58:04.539Z,0.90
2022-10-22T19:03:06.130Z,1.02
2022-10-22T19:08:07.561Z,0.77
2022-10-22T19:13:08.942Z,1.73
2022-10-22T19:18:10.663Z,1.58
2022-10-22T19:23:12.143Z,1.48
2022-10-22T19:28:13.565Z,1.70
2022-10-22T19:33:14.991Z,1.88
2022-10-22T19:38:16.416Z,2.03
2022-10-22T19:43:18.951Z,1.67
2022-10-22T19:48:20.586Z,1.77
2022-10-22T19:53:22.068Z,1.92
2022-10-22T19:58:23.567Z,2.00
2022-10-22T20:03:24.986Z,1.50
2022-10-22T20:08:26.375Z,2.17
2022-10-22T20:13:28.058Z,1.60
2022-10-22T20:18:29.527Z,2.00
2022-10-22T20:23:31.026Z,1.50
2022-10-22T20:28:32.565Z,1.40
2022-10-22T20:33:33.999Z,2.33
2022-10-22T20:43:45.111Z,1.20
2022-10-22T20:48:46.796Z,1.52
2022-10-22T20:53:48.431Z,1.15
2022-10-22T20:58:53.786Z,1.10
2022-10-22T21:03:55.355Z,2.15
2022-10-22T21:08:56.838Z,1.90
2022-10-22T21:13:59.502Z,1.77
2022-10-22T21:19:01.057Z,1.33
2022-10-22T21:24:02.488Z,2.08
2022-10-22T21:29:04.336Z,2.67
2022-10-22T21:34:05.930Z,1.75
2022-10-22T21:39:07.519Z,2.17
2022-10-22T21:44:08.995Z,2.17
2022-10-22T21:49:10.900Z,2.38
2022-10-22T21:54:12.845Z,1.63
2022-10-22T21:59:14.345Z,2.03
2022-10-22T22:04:15.774Z,3.42
2022-10-22T22:09:17.478Z,1.40
2022-10-22T22:14:18.936Z,1.60
2022-10-22T22:19:20.385Z,1.00
2022-10-22T22:24:21.864Z,1.80
2022-10-22T22:29:23.285Z,1.10
2022-10-22T22:34:24.721Z,1.13
2022-10-22T22:39:26.623Z,0.80
2022-10-22T22:44:28.030Z,0.90
2022-10-22T22:49:29.481Z,1.25
2022-10-22T22:54:30.980Z,1.50
2022-10-22T22:59:32.418Z,1.17
2022-10-22T23:04:33.911Z,0.80
2022-10-22T23:09:35.432Z,0.90
2022-10-22T23:14:36.900Z,1.33
2022-10-22T23:19:38.323Z,1.38
2022-10-22T23:24:39.983Z,2.00
2022-10-22T23:29:41.449Z,1.48
2022-10-22T23:34:42.955Z,1.80
2022-10-22T23:39:44.384Z,1.75
2022-10-22T23:44:45.839Z,1.23
2022-10-22T23:49:47.309Z,1.40
2022-10-22T23:54:48.899Z,1.02
2022-10-22T23:59:50.329Z,1.30
